sensor_id;sensor_type;location;lat;lon;timestamp;pressure;altitude;pressure_sealevel;temperature;humidity
41967;BME280;27656;53.068;8.818;2024-03-07T00:02:33;102800.84;;;1.81;100.00
41967;BME280;27656;53.068;8.818;2024-03-07T00:05:00;102801.66;;;1.83;100.00
41967;BME280;27656;53.068;8.818;2024-03-07T00:07:27;102801.69;;;1.81;100.00
41967;BME280;27656;53.068;8.818;2024-03-07T00:09:53;102802.81;;;1.73;100.00
41967;BME280;27656;53.068;8.818;2024-03-07T00:12:22;102809.13;;;1.65;100.00
41967;BME280;27656;53.068;8.818;2024-03-07T00:14:49;102816.06;;;1.66;100.00
41967;BME280;27656;53.068;8.818;2024-03-07T00:17:15;102820.47;;;1.64;100.00
41967;BME280;27656;53.068;8.818;2024-03-07T00:19:42;102814.47;;;1.62;100.00
41967;BME280;27656;53.068;8.818;2024-03-07T00:22:08;102817.94;;;1.61;100.00
41967;BME280;27656;53.068;8.818;2024-03-07T00:24:35;102818.06;;;1.58;100.00
41967;BME280;27656;53.068;8.818;2024-03-07T00:27:01;102816.28;;;1.59;100.00
41967;BME280;27656;53.068;8.818;2024-03-07T00:29:28;102817.31;;;1.55;100.00
41967;BME280;27656;53.068;8.818;2024-03-07T00:31:55;102819.28;;;1.46;100.00
41967;BME280;27656;53.068;8.818;2024-03-07T00:34:21;102822.16;;;1.39;100.00
41967;BME280;27656;53.068;8.818;2024-03-07T00:36:51;102823.84;;;1.40;100.00
41967;BME280;27656;53.068;8.818;2024-03-07T00:39:18;102820.09;;;1.48;100.00
41967;BME280;27656;53.068;8.818;2024-03-07T00:41:46;102816.09;;;1.38;100.00
41967;BME280;27656;53.068;8.818;2024-03-07T00:44:13;102823.00;;;1.39;100.00
41967;BME280;27656;53.068;8.818;2024-03-07T00:46:39;102817.69;;;1.42;100.00
41967;BME280;27656;53.068;8.818;2024-03-07T00:49:06;102811.75;;;1.39;100.00
41967;BME280;27656;53.068;8.818;2024-03-07T00:51:32;102809.81;;;1.45;100.00
41967;BME280;27656;53.068;8.818;2024-03-07T00:53:59;102813.34;;;1.43;100.00
41967;BME280;27656;53.068;8.818;2024-03-07T00:56:25;102807.44;;;1.38;100.00
41967;BME280;27656;53.068;8.818;2024-03-07T00:58:52;102799.69;;;1.36;100.00
41967;BME280;27656;53.068;8.818;2024-03-07T01:01:18;102805.88;;;1.32;100.00
41967;BME280;27656;53.068;8.818;2024-03-07T01:03:48;102806.94;;;1.26;100.00
41967;BME280;27656;53.068;8.818;2024-03-07T01:06:14;102798.50;;;1.18;100.00
41967;BME280;27656;53.068;8.818;2024-03-07T01:08:40;102807.09;;;1.20;100.00
41967;BME280;27656;53.068;8.818;2024-03-07T01:11:07;102798.63;;;1.14;100.00
41967;BME280;27656;53.068;8.818;2024-03-07T01:13:39;102802.88;;;1.16;100.00
41967;BME280;27656;53.068;8.818;2024-03-07T01:16:06;102802.25;;;1.10;100.00
41967;BME280;27656;53.068;8.818;2024-03-07T01:18:32;102796.38;;;1.03;100.00
41967;BME280;27656;53.068;8.818;2024-03-07T01:21:03;102804.28;;;1.00;100.00
41967;BME280;27656;53.068;8.818;2024-03-07T01:23:31;102799.16;;;0.97;100.00
41967;BME280;27656;53.068;8.818;2024-03-07T01:25:58;102802.56;;;0.99;100.00
41967;BME280;27656;53.068;8.818;2024-03-07T01:28:26;102798.28;;;0.96;100.00
41967;BME280;27656;53.068;8.818;2024-03-07T01:30:57;102797.56;;;0.93;100.00
41967;BME280;27656;53.068;8.818;2024-03-07T01:33:24;102787.34;;;0.85;100.00
41967;BME280;27656;53.068;8.818;2024-03-07T01:35:51;102799.53;;;0.83;100.00
41967;BME280;27656;53.068;8.818;2024-03-07T01:38:18;102790.09;;;0.80;100.00
41967;BME280;27656;53.068;8.818;2024-03-07T01:40:45;102793.69;;;0.76;100.00
41967;BME280;27656;53.068;8.818;2024-03-07T01:43:12;102785.13;;;0.73;100.00
41967;BME280;27656;53.068;8.818;2024-03-07T01:45:38;102788.75;;;0.67;100.00
41967;BME280;27656;53.068;8.818;2024-03-07T01:48:06;102795.66;;;0.68;100.00
41967;BME280;27656;53.068;8.818;2024-03-07T01:50:35;102788.84;;;0.64;100.00
41967;BME280;27656;53.068;8.818;2024-03-07T01:53:06;102787.97;;;0.63;100.00
41967;BME280;27656;53.068;8.818;2024-03-07T01:55:36;102787.25;;;0.60;100.00
41967;BME280;27656;53.068;8.818;2024-03-07T01:58:04;102794.19;;;0.59;100.00
41967;BME280;27656;53.068;8.818;2024-03-07T02:00:32;102792.56;;;0.55;100.00
41967;BME280;27656;53.068;8.818;2024-03-07T02:02:58;102786.44;;;0.58;100.00
41967;BME280;27656;53.068;8.818;2024-03-07T02:05:25;102786.47;;;0.56;100.00
41967;BME280;27656;53.068;8.818;2024-03-07T02:07:52;102786.47;;;0.56;100.00
41967;BME280;27656;53.068;8.818;2024-03-07T02:10:18;102789.91;;;0.57;100.00
41967;BME280;27656;53.068;8.818;2024-03-07T02:12:45;102791.63;;;0.58;100.00
41967;BME280;27656;53.068;8.818;2024-03-07T02:15:14;102778.59;;;0.59;100.00
41967;BME280;27656;53.068;8.818;2024-03-07T02:17:55;102786.28;;;0.62;100.00
41967;BME280;27656;53.068;8.818;2024-03-07T02:20:22;102777.66;;;0.62;100.00
41967;BME280;27656;53.068;8.818;2024-03-07T02:22:48;102789.78;;;0.61;100.00
41967;BME280;27656;53.068;8.818;2024-03-07T02:25:16;102792.19;;;0.69;100.00
41967;BME280;27656;53.068;8.818;2024-03-07T02:27:43;102784.56;;;0.61;100.00
41967;BME280;27656;53.068;8.818;2024-03-07T02:30:12;102790.59;;;0.63;100.00
41967;BME280;27656;53.068;8.818;2024-03-07T02:32:39;102782.91;;;0.59;100.00
41967;BME280;27656;53.068;8.818;2024-03-07T02:35:06;102780.25;;;0.62;100.00
41967;BME280;27656;53.068;8.818;2024-03-07T02:37:33;102787.16;;;0.63;100.00
41967;BME280;27656;53.068;8.818;2024-03-07T02:39:59;102779.44;;;0.60;100.00
41967;BME280;27656;53.068;8.818;2024-03-07T02:42:26;102793.38;;;0.57;100.00
41967;BME280;27656;53.068;8.818;2024-03-07T02:44:52;102794.19;;;0.59;100.00
41967;BME280;27656;53.068;8.818;2024-03-07T02:47:19;102795.84;;;0.62;100.00
41967;BME280;27656;53.068;8.818;2024-03-07T02:49:45;102785.38;;;0.63;100.00
41967;BME280;27656;53.068;8.818;2024-03-07T02:52:12;102793.38;;;0.57;100.00
41967;BME280;27656;53.068;8.818;2024-03-07T02:54:38;102787.31;;;0.57;100.00
41967;BME280;27656;53.068;8.818;2024-03-07T02:57:05;102788.09;;;0.60;100.00
41967;BME280;27656;53.068;8.818;2024-03-07T02:59:32;102783.81;;;0.58;100.00
41967;BME280;27656;53.068;8.818;2024-03-07T03:01:58;102779.38;;;0.61;100.00
41967;BME280;27656;53.068;8.818;2024-03-07T03:04:24;102790.34;;;0.71;100.00
41967;BME280;27656;53.068;8.818;2024-03-07T03:06:51;102775.81;;;0.66;100.00
41967;BME280;27656;53.068;8.818;2024-03-07T03:09:17;102781.09;;;0.62;100.00
41967;BME280;27656;53.068;8.818;2024-03-07T03:11:44;102781.22;;;0.58;100.00
41967;BME280;27656;53.068;8.818;2024-03-07T03:14:12;102778.72;;;0.55;100.00
41967;BME280;27656;53.068;8.818;2024-03-07T03:16:43;102772.63;;;0.56;100.00
41967;BME280;27656;53.068;8.818;2024-03-07T03:19:14;102770.03;;;0.56;100.00
41967;BME280;27656;53.068;8.818;2024-03-07T03:21:41;102754.53;;;0.53;100.00
41967;BME280;27656;53.068;8.818;2024-03-07T03:24:09;102765.50;;;0.62;100.00
41967;BME280;27656;53.068;8.818;2024-03-07T03:26:35;102757.75;;;0.61;100.00
41967;BME280;27656;53.068;8.818;2024-03-07T03:29:02;102755.97;;;0.61;100.00
41967;BME280;27656;53.068;8.818;2024-03-07T03:31:28;102752.53;;;0.61;100.00
41967;BME280;27656;53.068;8.818;2024-03-07T03:33:55;102749.84;;;0.64;100.00
41967;BME280;27656;53.068;8.818;2024-03-07T03:36:22;102751.69;;;0.60;100.00
41967;BME280;27656;53.068;8.818;2024-03-07T03:38:48;102756.91;;;0.60;100.00
41967;BME280;27656;53.068;8.818;2024-03-07T03:41:17;102758.81;;;0.54;100.00
41967;BME280;27656;53.068;8.818;2024-03-07T03:43:44;102770.00;;;0.57;100.00
41967;BME280;27656;53.068;8.818;2024-03-07T03:46:11;102761.13;;;0.65;100.00
41967;BME280;27656;53.068;8.818;2024-03-07T03:48:41;102762.56;;;0.73;100.00
41967;BME280;27656;53.068;8.818;2024-03-07T03:51:07;102756.50;;;0.74;100.00
41967;BME280;27656;53.068;8.818;2024-03-07T03:53:35;102761.50;;;0.80;100.00
41967;BME280;27656;53.068;8.818;2024-03-07T03:56:03;102760.41;;;0.88;100.00
41967;BME280;27656;53.068;8.818;2024-03-07T03:58:32;102759.53;;;0.89;100.00
41967;BME280;27656;53.068;8.818;2024-03-07T04:01:00;102768.84;;;0.96;100.00
41967;BME280;27656;53.068;8.818;2024-03-07T04:03:26;102763.78;;;0.91;100.00
41967;BME280;27656;53.068;8.818;2024-03-07T04:05:53;102761.41;;;0.83;100.00
41967;BME280;27656;53.068;8.818;2024-03-07T04:08:21;102765.69;;;0.86;100.00
41967;BME280;27656;53.068;8.818;2024-03-07T04:10:48;102761.00;;;0.97;100.00
41967;BME280;27656;53.068;8.818;2024-03-07T04:13:15;102757.53;;;0.97;100.00
41967;BME280;27656;53.068;8.818;2024-03-07T04:15:41;102755.88;;;0.94;100.00
41967;BME280;27656;53.068;8.818;2024-03-07T04:18:10;102761.00;;;0.97;100.00
41967;BME280;27656;53.068;8.818;2024-03-07T04:20:37;102754.75;;;1.03;100.00
41967;BME280;27656;53.068;8.818;2024-03-07T04:23:05;102757.16;;;1.09;100.00
41967;BME280;27656;53.068;8.818;2024-03-07T04:25:34;102765.03;;;1.08;100.00
41967;BME280;27656;53.068;8.818;2024-03-07T04:28:01;102763.28;;;1.06;100.00
41967;BME280;27656;53.068;8.818;2024-03-07T04:30:27;102764.78;;;1.15;100.00
41967;BME280;27656;53.068;8.818;2024-03-07T04:32:54;102759.56;;;1.15;100.00
41967;BME280;27656;53.068;8.818;2024-03-07T04:35:20;102767.13;;;1.23;100.00
41967;BME280;27656;53.068;8.818;2024-03-07T04:37:48;102760.19;;;1.23;100.00
41967;BME280;27656;53.068;8.818;2024-03-07T04:40:14;102761.75;;;1.29;100.00
41967;BME280;27656;53.068;8.818;2024-03-07T04:42:46;102759.00;;;1.34;100.00
41967;BME280;27656;53.068;8.818;2024-03-07T04:45:15;102762.09;;;1.45;100.00
41967;BME280;27656;53.068;8.818;2024-03-07T04:47:42;102768.22;;;1.42;100.00
41967;BME280;27656;53.068;8.818;2024-03-07T04:50:09;102769.09;;;1.43;100.00
41967;BME280;27656;53.068;8.818;2024-03-07T04:52:40;102769.00;;;1.46;100.00
41967;BME280;27656;53.068;8.818;2024-03-07T04:55:07;102774.78;;;1.54;100.00
41967;BME280;27656;53.068;8.818;2024-03-07T04:57:37;102775.72;;;1.53;100.00
41967;BME280;27656;53.068;8.818;2024-03-07T05:00:07;102780.88;;;1.55;100.00
41967;BME280;27656;53.068;8.818;2024-03-07T05:02:34;102771.44;;;1.51;100.00
41967;BME280;27656;53.068;8.818;2024-03-07T05:05:00;102775.81;;;1.50;100.00
41967;BME280;27656;53.068;8.818;2024-03-07T05:07:27;102774.25;;;1.44;100.00
41967;BME280;27656;53.068;8.818;2024-03-07T05:09:53;102768.81;;;1.52;100.00
41967;BME280;27656;53.068;8.818;2024-03-07T05:12:21;102785.19;;;1.54;100.00
41967;BME280;27656;53.068;8.818;2024-03-07T05:14:47;102775.88;;;1.47;100.00
41967;BME280;27656;53.068;8.818;2024-03-07T05:17:14;102782.06;;;1.44;100.00
41967;BME280;27656;53.068;8.818;2024-03-07T05:19:41;102777.56;;;1.50;100.00
41967;BME280;27656;53.068;8.818;2024-03-07T05:22:07;102777.19;;;1.60;100.00
41967;BME280;27656;53.068;8.818;2024-03-07T05:24:34;102778.91;;;1.61;100.00
41967;BME280;27656;53.068;8.818;2024-03-07T05:27:01;102776.41;;;1.58;100.00
41967;BME280;27656;53.068;8.818;2024-03-07T05:29:28;102774.50;;;1.63;100.00
41967;BME280;27656;53.068;8.818;2024-03-07T05:31:54;102773.53;;;1.66;100.00
41967;BME280;27656;53.068;8.818;2024-03-07T05:34:21;102770.84;;;1.69;100.00
41967;BME280;27656;53.068;8.818;2024-03-07T05:36:49;102769.06;;;1.71;100.00
41967;BME280;27656;53.068;8.818;2024-03-07T05:39:16;102772.44;;;1.73;100.00
41967;BME280;27656;53.068;8.818;2024-03-07T05:41:44;102766.97;;;1.81;100.00
41967;BME280;27656;53.068;8.818;2024-03-07T05:44:12;102773.72;;;1.86;100.00
41967;BME280;27656;53.068;8.818;2024-03-07T05:46:42;102768.63;;;1.83;100.00
41967;BME280;27656;53.068;8.818;2024-03-07T05:49:15;102768.31;;;1.93;100.00
41967;BME280;27656;53.068;8.818;2024-03-07T05:51:46;102761.91;;;2.01;100.00
41967;BME280;27656;53.068;8.818;2024-03-07T05:54:13;102761.06;;;2.01;100.00
41967;BME280;27656;53.068;8.818;2024-03-07T05:56:41;102763.69;;;2.01;100.00
41967;BME280;27656;53.068;8.818;2024-03-07T05:59:08;102769.69;;;2.03;100.00
41967;BME280;27656;53.068;8.818;2024-03-07T06:01:38;102770.50;;;2.05;100.00
41967;BME280;27656;53.068;8.818;2024-03-07T06:04:06;102768.56;;;2.10;100.00
41967;BME280;27656;53.068;8.818;2024-03-07T06:06:34;102769.38;;;2.12;100.00
41967;BME280;27656;53.068;8.818;2024-03-07T06:09:03;102773.47;;;2.19;100.00
41967;BME280;27656;53.068;8.818;2024-03-07T06:11:38;102779.47;;;2.21;100.00
41967;BME280;27656;53.068;8.818;2024-03-07T06:14:06;102769.84;;;2.23;100.00
41967;BME280;27656;53.068;8.818;2024-03-07T06:16:35;102773.06;;;2.30;100.00
41967;BME280;27656;53.068;8.818;2024-03-07T06:19:06;102778.91;;;2.37;100.00
41967;BME280;27656;53.068;8.818;2024-03-07T06:21:38;102767.69;;;2.34;100.00
41967;BME280;27656;53.068;8.818;2024-03-07T06:24:08;102764.03;;;2.40;100.00
41967;BME280;27656;53.068;8.818;2024-03-07T06:26:37;102779.38;;;2.48;100.00
41967;BME280;27656;53.068;8.818;2024-03-07T06:29:07;102778.53;;;2.47;100.00
41967;BME280;27656;53.068;8.818;2024-03-07T06:31:34;102774.84;;;2.53;100.00
41967;BME280;27656;53.068;8.818;2024-03-07T06:34:01;102775.75;;;2.52;100.00
41967;BME280;27656;53.068;8.818;2024-03-07T06:36:28;102782.53;;;2.56;100.00
41967;BME280;27656;53.068;8.818;2024-03-07T06:38:54;102780.00;;;2.54;100.00
41967;BME280;27656;53.068;8.818;2024-03-07T06:41:21;102786.69;;;2.62;100.00
41967;BME280;27656;53.068;8.818;2024-03-07T06:43:49;102780.63;;;2.61;100.00
41967;BME280;27656;53.068;8.818;2024-03-07T06:46:16;102784.19;;;2.59;100.00
41967;BME280;27656;53.068;8.818;2024-03-07T06:48:43;102778.69;;;2.66;100.00
41967;BME280;27656;53.068;8.818;2024-03-07T06:51:10;102774.22;;;2.70;100.00
41967;BME280;27656;53.068;8.818;2024-03-07T06:53:37;102779.19;;;2.76;100.00
41967;BME280;27656;53.068;8.818;2024-03-07T06:56:03;102777.44;;;2.76;100.00
41967;BME280;27656;53.068;8.818;2024-03-07T06:58:30;102779.19;;;2.76;100.00
41967;BME280;27656;53.068;8.818;2024-03-07T07:00:59;102774.66;;;2.81;100.00
41967;BME280;27656;53.068;8.818;2024-03-07T07:03:27;102779.56;;;2.89;100.00
41967;BME280;27656;53.068;8.818;2024-03-07T07:05:56;102775.94;;;2.93;100.00
41967;BME280;27656;53.068;8.818;2024-03-07T07:08:22;102772.19;;;3.00;100.00
41967;BME280;27656;53.068;8.818;2024-03-07T07:10:49;102781.00;;;2.97;100.00
41967;BME280;27656;53.068;8.818;2024-03-07T07:13:16;102772.97;;;3.02;100.00
41967;BME280;27656;53.068;8.818;2024-03-07T07:15:43;102773.53;;;3.10;100.00
41967;BME280;27656;53.068;8.818;2024-03-07T07:18:09;102770.81;;;3.13;100.00
41967;BME280;27656;53.068;8.818;2024-03-07T07:20:37;102778.56;;;3.15;100.00
41967;BME280;27656;53.068;8.818;2024-03-07T07:23:04;102778.47;;;3.18;100.00
41967;BME280;27656;53.068;8.818;2024-03-07T07:25:31;102775.84;;;3.18;100.00
41967;BME280;27656;53.068;8.818;2024-03-07T07:27:57;102771.94;;;3.28;100.00
41967;BME280;27656;53.068;8.818;2024-03-07T07:30:24;102770.13;;;3.30;100.00
41967;BME280;27656;53.068;8.818;2024-03-07T07:32:51;102768.13;;;3.37;100.00
41967;BME280;27656;53.068;8.818;2024-03-07T07:35:18;102756.31;;;3.49;100.00
41967;BME280;27656;53.068;8.818;2024-03-07T07:37:50;102753.25;;;3.59;100.00
41967;BME280;27656;53.068;8.818;2024-03-07T07:40:19;102754.25;;;3.57;100.00
41967;BME280;27656;53.068;8.818;2024-03-07T07:42:45;102748.22;;;3.55;100.00
41967;BME280;27656;53.068;8.818;2024-03-07T07:45:14;102752.03;;;3.68;100.00
41967;BME280;27656;53.068;8.818;2024-03-07T07:47:42;102748.50;;;3.69;100.00
41967;BME280;27656;53.068;8.818;2024-03-07T07:50:14;102751.84;;;3.73;100.00
41967;BME280;27656;53.068;8.818;2024-03-07T07:55:12;102746.22;;;3.82;100.00
41967;BME280;27656;53.068;8.818;2024-03-07T07:57:47;102750.34;;;3.88;100.00
41967;BME280;27656;53.068;8.818;2024-03-07T08:00:17;102747.44;;;3.94;100.00
41967;BME280;27656;53.068;8.818;2024-03-07T08:02:57;102755.03;;;4.00;100.00
41967;BME280;27656;53.068;8.818;2024-03-07T08:05:25;102747.78;;;4.07;100.00
41967;BME280;27656;53.068;8.818;2024-03-07T08:07:58;102745.66;;;4.15;100.00
41967;BME280;27656;53.068;8.818;2024-03-07T08:10:26;102748.22;;;4.16;100.00
41967;BME280;27656;53.068;8.818;2024-03-07T08:13:00;102738.94;;;4.09;100.00
41967;BME280;27656;53.068;8.818;2024-03-07T08:15:28;102755.06;;;4.19;100.00
41967;BME280;27656;53.068;8.818;2024-03-07T08:17:56;102747.72;;;4.27;100.00
41967;BME280;27656;53.068;8.818;2024-03-07T08:20:23;102744.69;;;4.36;100.00
41967;BME280;27656;53.068;8.818;2024-03-07T08:22:53;102746.00;;;4.46;100.00
41967;BME280;27656;53.068;8.818;2024-03-07T08:25:24;102735.88;;;4.58;100.00
41967;BME280;27656;53.068;8.818;2024-03-07T08:27:53;102740.56;;;4.70;100.00
41967;BME280;27656;53.068;8.818;2024-03-07T08:30:20;102734.53;;;4.87;100.00
41967;BME280;27656;53.068;8.818;2024-03-07T08:32:49;102736.63;;;4.98;100.00
41967;BME280;27656;53.068;8.818;2024-03-07T08:35:18;102738.41;;;4.97;100.00
41967;BME280;27656;53.068;8.818;2024-03-07T08:37:47;102739.75;;;4.87;100.00
41967;BME280;27656;53.068;8.818;2024-03-07T08:40:30;102736.44;;;4.83;100.00
41967;BME280;27656;53.068;8.818;2024-03-07T08:43:01;102722.50;;;4.83;100.00
41967;BME280;27656;53.068;8.818;2024-03-07T08:45:29;102727.16;;;4.76;100.00
41967;BME280;27656;53.068;8.818;2024-03-07T08:48:00;102723.72;;;4.76;100.00
41967;BME280;27656;53.068;8.818;2024-03-07T08:50:27;102740.25;;;4.57;100.00
41967;BME280;27656;53.068;8.818;2024-03-07T08:52:54;102735.25;;;4.53;100.00
41967;BME280;27656;53.068;8.818;2024-03-07T08:55:25;102730.56;;;4.59;100.00
41967;BME280;27656;53.068;8.818;2024-03-07T08:57:53;102730.16;;;4.68;100.00
41967;BME280;27656;53.068;8.818;2024-03-07T09:00:20;102726.69;;;4.68;100.00
41967;BME280;27656;53.068;8.818;2024-03-07T09:02:58;102735.19;;;4.73;100.00
41967;BME280;27656;53.068;8.818;2024-03-07T09:05:27;102735.03;;;4.76;100.00
41967;BME280;27656;53.068;8.818;2024-03-07T09:07:55;102718.63;;;4.73;100.00
41967;BME280;27656;53.068;8.818;2024-03-07T09:10:21;102732.81;;;4.86;100.00
41967;BME280;27656;53.068;8.818;2024-03-07T09:12:51;102721.00;;;4.96;100.00
41967;BME280;27656;53.068;8.818;2024-03-07T09:15:18;102716.41;;;5.19;100.00
41967;BME280;27656;53.068;8.818;2024-03-07T09:17:48;102719.41;;;4.75;100.00
41967;BME280;27656;53.068;8.818;2024-03-07T09:20:14;102719.66;;;4.87;100.00
41967;BME280;27656;53.068;8.818;2024-03-07T09:22:42;102718.09;;;4.83;100.00
41967;BME280;27656;53.068;8.818;2024-03-07T09:25:09;102719.50;;;4.91;100.00
41967;BME280;27656;53.068;8.818;2024-03-07T09:27:36;102717.91;;;5.24;100.00
41967;BME280;27656;53.068;8.818;2024-03-07T09:30:04;102724.03;;;5.41;100.00
41967;BME280;27656;53.068;8.818;2024-03-07T09:32:31;102719.25;;;5.14;100.00
41967;BME280;27656;53.068;8.818;2024-03-07T09:35:00;102722.13;;;4.91;100.00
41967;BME280;27656;53.068;8.818;2024-03-07T09:37:27;102725.41;;;4.77;100.00
41967;BME280;27656;53.068;8.818;2024-03-07T09:39:54;102724.19;;;4.84;100.00
41967;BME280;27656;53.068;8.818;2024-03-07T09:42:20;102732.56;;;5.09;100.00
41967;BME280;27656;53.068;8.818;2024-03-07T09:44:51;102732.03;;;4.84;100.00
41967;BME280;27656;53.068;8.818;2024-03-07T09:47:18;102735.75;;;4.61;100.00
41967;BME280;27656;53.068;8.818;2024-03-07T09:49:46;102728.81;;;4.60;100.00
41967;BME280;27656;53.068;8.818;2024-03-07T09:52:49;102723.94;;;4.71;100.00
41967;BME280;27656;53.068;8.818;2024-03-07T10:03:29;102733.75;;;5.21;100.00
41967;BME280;27656;53.068;8.818;2024-03-07T10:05:57;102733.81;;;4.83;100.00
41967;BME280;27656;53.068;8.818;2024-03-07T10:08:24;102733.47;;;4.72;100.00
41967;BME280;27656;53.068;8.818;2024-03-07T10:10:54;102736.22;;;4.88;100.00
41967;BME280;27656;53.068;8.818;2024-03-07T10:13:22;102734.41;;;4.71;100.00
41967;BME280;27656;53.068;8.818;2024-03-07T10:15:49;102727.09;;;4.97;100.00
41967;BME280;27656;53.068;8.818;2024-03-07T10:18:15;102743.81;;;5.12;100.00
41967;BME280;27656;53.068;8.818;2024-03-07T10:20:45;102736.75;;;4.77;100.00
41967;BME280;27656;53.068;8.818;2024-03-07T10:23:18;102728.25;;;4.53;100.00
41967;BME280;27656;53.068;8.818;2024-03-07T10:25:46;102731.16;;;4.47;100.00
41967;BME280;27656;53.068;8.818;2024-03-07T10:28:13;102736.16;;;4.52;100.00
41967;BME280;27656;53.068;8.818;2024-03-07T10:30:43;102736.31;;;4.67;100.00
41967;BME280;27656;53.068;8.818;2024-03-07T10:33:11;102729.44;;;4.65;100.00
41967;BME280;27656;53.068;8.818;2024-03-07T10:35:39;102732.28;;;4.79;100.00
41967;BME280;27656;53.068;8.818;2024-03-07T10:38:05;102735.44;;;4.86;100.00
41967;BME280;27656;53.068;8.818;2024-03-07T10:40:34;102738.25;;;5.00;100.00
41967;BME280;27656;53.068;8.818;2024-03-07T10:43:10;102733.34;;;5.12;100.00
41967;BME280;27656;53.068;8.818;2024-03-07T10:45:44;102734.47;;;5.42;100.00
41967;BME280;27656;53.068;8.818;2024-03-07T10:48:17;102728.00;;;5.32;100.00
41967;BME280;27656;53.068;8.818;2024-03-07T10:51:03;102735.78;;;5.51;100.00
41967;BME280;27656;53.068;8.818;2024-03-07T10:54:07;102729.59;;;5.52;100.00
41967;BME280;27656;53.068;8.818;2024-03-07T10:56:56;102732.78;;;5.59;100.00
41967;BME280;27656;53.068;8.818;2024-03-07T10:59:30;102730.47;;;5.70;100.00
41967;BME280;27656;53.068;8.818;2024-03-07T11:04:34;102731.94;;;5.58;100.00
41967;BME280;27656;53.068;8.818;2024-03-07T11:07:01;102719.59;;;5.43;100.00
41967;BME280;27656;53.068;8.818;2024-03-07T11:09:28;102723.88;;;5.26;100.00
41967;BME280;27656;53.068;8.818;2024-03-07T11:12:00;102724.97;;;5.40;100.00
41967;BME280;27656;53.068;8.818;2024-03-07T11:14:30;102723.19;;;5.23;100.00
41967;BME280;27656;53.068;8.818;2024-03-07T11:16:58;102726.47;;;4.73;100.00
41967;BME280;27656;53.068;8.818;2024-03-07T11:19:29;102717.41;;;4.80;100.00
41967;BME280;27656;53.068;8.818;2024-03-07T11:21:58;102714.47;;;5.05;100.00
41967;BME280;27656;53.068;8.818;2024-03-07T11:24:29;102711.09;;;5.20;100.00
41967;BME280;27656;53.068;8.818;2024-03-07T11:26:58;102712.84;;;5.02;100.00
41967;BME280;27656;53.068;8.818;2024-03-07T11:32:03;102711.41;;;4.78;100.00
41967;BME280;27656;53.068;8.818;2024-03-07T11:34:30;102711.06;;;5.03;100.00
41967;BME280;27656;53.068;8.818;2024-03-07T11:36:57;102715.19;;;5.26;100.00
41967;BME280;27656;53.068;8.818;2024-03-07T11:39:42;102710.22;;;5.39;100.00
41967;BME280;27656;53.068;8.818;2024-03-07T11:42:19;102713.28;;;5.47;100.00
41967;BME280;27656;53.068;8.818;2024-03-07T11:44:48;102717.50;;;5.32;100.00
41967;BME280;27656;53.068;8.818;2024-03-07T11:47:15;102708.16;;;5.09;100.00
41967;BME280;27656;53.068;8.818;2024-03-07T11:49:45;102704.31;;;4.99;100.00
41967;BME280;27656;53.068;8.818;2024-03-07T11:52:15;102703.16;;;5.22;100.00
41967;BME280;27656;53.068;8.818;2024-03-07T11:54:43;102699.03;;;5.35;100.00
41967;BME280;27656;53.068;8.818;2024-03-07T11:57:16;102698.41;;;5.65;100.00
41967;BME280;27656;53.068;8.818;2024-03-07T11:59:47;102703.78;;;5.79;100.00
41967;BME280;27656;53.068;8.818;2024-03-07T12:02:19;102697.47;;;5.66;100.00
41967;BME280;27656;53.068;8.818;2024-03-07T12:04:49;102697.63;;;5.63;100.00
41967;BME280;27656;53.068;8.818;2024-03-07T12:07:16;102692.00;;;5.70;100.00
41967;BME280;27656;53.068;8.818;2024-03-07T12:09:49;102688.31;;;5.90;100.00
41967;BME280;27656;53.068;8.818;2024-03-07T12:12:22;102682.06;;;6.10;100.00
41967;BME280;27656;53.068;8.818;2024-03-07T12:14:51;102676.09;;;5.73;100.00
41967;BME280;27656;53.068;8.818;2024-03-07T12:17:21;102683.22;;;5.54;100.00
41967;BME280;27656;53.068;8.818;2024-03-07T12:19:48;102674.38;;;5.39;100.00
41967;BME280;27656;53.068;8.818;2024-03-07T12:22:21;102670.88;;;5.56;100.00
41967;BME280;27656;53.068;8.818;2024-03-07T12:25:00;102671.44;;;5.63;100.00
41967;BME280;27656;53.068;8.818;2024-03-07T12:27:29;102670.28;;;5.16;100.00
41967;BME280;27656;53.068;8.818;2024-03-07T12:29:56;102668.69;;;4.77;100.00
41967;BME280;27656;53.068;8.818;2024-03-07T12:32:23;102666.38;;;4.71;100.00
41967;BME280;27656;53.068;8.818;2024-03-07T12:34:52;102663.19;;;4.64;100.00
41967;BME280;27656;53.068;8.818;2024-03-07T12:37:19;102658.47;;;4.54;100.00
41967;BME280;27656;53.068;8.818;2024-03-07T12:39:53;102660.81;;;4.41;100.00
41967;BME280;27656;53.068;8.818;2024-03-07T12:42:27;102657.41;;;4.58;100.00
41967;BME280;27656;53.068;8.818;2024-03-07T12:44:55;102659.72;;;4.64;100.00
41967;BME280;27656;53.068;8.818;2024-03-07T12:47:23;102652.91;;;4.79;100.00
41967;BME280;27656;53.068;8.818;2024-03-07T12:49:50;102658.31;;;4.93;100.00
41967;BME280;27656;53.068;8.818;2024-03-07T12:52:17;102654.25;;;5.05;100.00
41967;BME280;27656;53.068;8.818;2024-03-07T12:54:43;102652.28;;;5.27;100.00
41967;BME280;27656;53.068;8.818;2024-03-07T12:57:10;102644.78;;;5.37;100.00
41967;BME280;27656;53.068;8.818;2024-03-07T12:59:38;102645.00;;;5.67;100.00
41967;BME280;27656;53.068;8.818;2024-03-07T13:02:09;102651.38;;;5.79;100.00
41967;BME280;27656;53.068;8.818;2024-03-07T13:04:36;102643.09;;;5.87;100.00
41967;BME280;27656;53.068;8.818;2024-03-07T13:07:09;102640.16;;;5.42;100.00
41967;BME280;27656;53.068;8.818;2024-03-07T13:09:36;102639.25;;;5.26;100.00
41967;BME280;27656;53.068;8.818;2024-03-07T13:12:04;102636.63;;;5.08;100.00
41967;BME280;27656;53.068;8.818;2024-03-07T13:14:36;102641.72;;;5.12;100.00